Time;durP1;ratioP1;P1;durP2;ratioP2;P2;SDS_P1;SDS_P2;PMS_P1;PMS_P2;Temp;Humidity;BMP_temperature;BMP_pressure;BME280_temperature;BME280_humidity;BME280_pressure;Samples;Min_cycle;Max_cycle;Signal;HPM_P1;HPM_P2
2023/12/04 00:01:31;;;;;;;0.00;0.00;;;;;;;7.42;57.67;101273.19;4997254;28;20033;-75
2023/12/04 00:03:56;;;;;;;0.00;0.00;;;;;;;7.41;57.49;101265.38;5013155;28;20046;-75
2023/12/04 00:06:23;;;;;;;0.40;0.40;;;;;;;7.37;57.26;101261.00;5024661;28;20030;-75
2023/12/04 00:08:48;;;;;;;0.00;0.00;;;;;;;6.96;57.94;101257.09;4993183;28;20030;-75
2023/12/04 00:11:13;;;;;;;0.07;0.07;;;;;;;7.16;58.90;101254.72;4993297;28;20367;-76
2023/12/04 00:13:39;;;;;;;0.30;0.30;;;;;;;7.72;56.40;101252.63;5004049;28;20088;-75
2023/12/04 00:16:05;;;;;;;0.07;0.07;;;;;;;7.64;56.02;101250.84;5012049;28;20030;-75
2023/12/04 00:18:31;;;;;;;0.00;0.00;;;;;;;6.95;58.98;101253.63;5003074;28;20544;-75
2023/12/04 00:20:56;;;;;;;2.27;1.03;;;;;;;7.22;58.68;101252.19;4993289;28;20109;-75
2023/12/04 00:23:22;;;;;;;1.70;0.50;;;;;;;8.02;56.71;101240.72;5000066;28;20037;-75
2023/12/04 00:25:47;;;;;;;0.00;0.00;;;;;;;6.91;59.58;101244.06;5013821;28;20481;-76
2023/12/04 00:28:12;;;;;;;0.10;0.10;;;;;;;7.79;57.00;101241.44;5007175;28;20386;-75
2023/12/04 00:30:38;;;;;;;0.00;0.00;;;;;;;7.85;56.53;101233.66;5013389;28;20097;-75
2023/12/04 00:33:04;;;;;;;0.00;0.00;;;;;;;7.76;57.01;101231.00;5006780;28;20034;-76
2023/12/04 00:35:29;;;;;;;0.10;0.10;;;;;;;8.04;56.52;101228.63;5010059;28;20032;-75
2023/12/04 00:37:54;;;;;;;0.20;0.20;;;;;;;7.71;56.05;101224.91;5007734;28;20018;-75
2023/12/04 00:40:20;;;;;;;1.90;0.63;;;;;;;8.39;54.66;101236.63;5008198;28;20037;-75
2023/12/04 00:42:45;;;;;;;1.07;0.90;;;;;;;8.60;53.67;101225.47;5010329;28;20064;-75
2023/12/04 00:45:10;;;;;;;0.00;0.00;;;;;;;8.32;55.05;101212.28;4997482;28;20037;-75
2023/12/04 00:47:36;;;;;;;0.73;0.73;;;;;;;7.76;56.27;101215.38;4994279;28;20032;-75
2023/12/04 00:50:01;;;;;;;2.07;1.50;;;;;;;7.77;55.65;101217.13;5010870;28;20453;-75
2023/12/04 00:52:27;;;;;;;0.20;0.20;;;;;;;7.26;56.31;101217.53;5002893;28;20026;-76
2023/12/04 00:54:53;;;;;;;0.00;0.00;;;;;;;7.58;56.57;101209.19;5006770;28;20501;-75
2023/12/04 00:57:18;;;;;;;0.10;0.10;;;;;;;8.09;55.58;101203.47;5001219;28;20026;-75
2023/12/04 00:59:44;;;;;;;0.10;0.10;;;;;;;8.06;55.58;101208.66;5011675;28;20032;-75
2023/12/04 01:02:09;;;;;;;0.00;0.00;;;;;;;7.82;55.66;101200.69;5011554;28;20062;-76
2023/12/04 01:04:34;;;;;;;1.50;1.40;;;;;;;8.43;54.04;101195.84;5000523;28;20034;-75
2023/12/04 01:07:01;;;;;;;0.50;0.50;;;;;;;8.26;54.37;101194.00;4992658;28;20062;-75
2023/12/04 01:09:27;;;;;;;0.00;0.00;;;;;;;7.72;55.17;101195.41;5000102;28;20029;-75
2023/12/04 01:11:53;;;;;;;0.67;0.67;;;;;;;8.05;54.14;101188.69;5003963;28;20030;-75
2023/12/04 01:14:20;;;;;;;0.83;0.63;;;;;;;7.82;56.02;101182.47;4995464;28;20081;-75
2023/12/04 01:16:45;;;;;;;0.40;0.40;;;;;;;8.12;54.26;101195.69;4992321;28;20023;-75
2023/12/04 01:19:11;;;;;;;0.07;0.07;;;;;;;8.33;54.26;101197.53;4997214;28;20088;-75
2023/12/04 01:21:36;;;;;;;0.17;0.17;;;;;;;7.39;56.59;101189.06;5010846;28;20030;-75
2023/12/04 01:24:01;;;;;;;0.10;0.10;;;;;;;8.21;55.07;101190.50;5008368;28;20045;-75
2023/12/04 01:26:27;;;;;;;0.20;0.20;;;;;;;7.61;55.33;101177.97;5008855;28;20537;-75
2023/12/04 01:28:52;;;;;;;0.10;0.10;;;;;;;7.78;55.55;101172.03;5012586;28;20528;-75
2023/12/04 01:31:17;;;;;;;0.00;0.00;;;;;;;7.75;55.04;101174.63;5005881;28;20112;-75
2023/12/04 01:33:43;;;;;;;0.93;0.93;;;;;;;7.30;56.65;101177.72;4991174;28;20018;-75
2023/12/04 01:36:08;;;;;;;0.00;0.00;;;;;;;7.59;55.57;101166.69;5010015;28;20026;-75
2023/12/04 01:38:34;;;;;;;0.20;0.20;;;;;;;7.71;55.48;101167.66;5010734;28;20544;-75
2023/12/04 01:41:02;;;;;;;0.10;0.10;;;;;;;8.23;54.66;101157.53;5010326;28;20113;-75
2023/12/04 01:43:28;;;;;;;0.20;0.20;;;;;;;8.58;53.39;101159.44;5011049;28;20033;-75
2023/12/04 01:45:54;;;;;;;0.40;0.40;;;;;;;7.86;54.61;101153.84;4996567;28;20437;-75
2023/12/04 01:48:20;;;;;;;0.10;0.10;;;;;;;8.06;54.67;101148.78;4998493;28;20816;-75
2023/12/04 01:50:46;;;;;;;0.13;0.13;;;;;;;7.52;56.80;101144.09;5001308;28;20088;-75
2023/12/04 01:53:11;;;;;;;0.00;0.00;;;;;;;7.43;56.58;101136.22;5010307;28;20026;-75
2023/12/04 01:55:38;;;;;;;0.07;0.07;;;;;;;7.21;56.90;101141.25;5011253;28;20037;-75
2023/12/04 01:58:04;;;;;;;0.10;0.10;;;;;;;7.31;56.89;101142.19;5011508;28;20026;-74
2023/12/04 02:00:31;;;;;;;0.10;0.10;;;;;;;7.26;56.93;101134.34;5001837;28;20033;-75
2023/12/04 02:02:58;;;;;;;0.50;0.50;;;;;;;7.27;56.22;101136.09;5011780;28;20073;-75
2023/12/04 02:05:24;;;;;;;0.10;0.10;;;;;;;7.05;57.59;101123.78;5007911;28;20055;-75
2023/12/04 02:07:50;;;;;;;1.97;1.80;;;;;;;7.05;57.90;101134.16;5009794;28;20459;-75
2023/12/04 02:10:15;;;;;;;0.03;0.03;;;;;;;6.97;58.10;101127.16;5009669;28;20097;-75
2023/12/04 02:12:41;;;;;;;0.00;0.00;;;;;;;7.48;56.32;101121.50;5001426;28;20025;-75
2023/12/04 02:15:06;;;;;;;0.50;0.50;;;;;;;7.69;56.03;101114.72;5009840;28;20041;-75
2023/12/04 02:17:33;;;;;;;0.67;0.67;;;;;;;7.27;56.39;101120.50;5010020;28;20109;-75
2023/12/04 02:19:59;;;;;;;0.10;0.10;;;;;;;6.99;57.41;101113.31;5025210;28;20025;-75
2023/12/04 02:22:24;;;;;;;0.23;0.23;;;;;;;7.26;56.64;101112.69;5008233;28;20045;-75
2023/12/04 02:24:50;;;;;;;0.00;0.00;;;;;;;7.77;55.22;101103.47;5011527;28;20030;-75
2023/12/04 02:27:25;;;;;;;0.10;0.10;;;;;;;7.27;56.63;101104.88;4990593;28;20030;-75
2023/12/04 02:29:58;;;;;;;0.03;0.03;;;;;;;7.74;55.79;101106.06;4993039;28;20479;-75
2023/12/04 02:32:26;;;;;;;0.00;0.00;;;;;;;7.47;55.74;101092.03;4990220;28;20026;-75
2023/12/04 02:34:54;;;;;;;2.73;1.13;;;;;;;7.01;56.82;101088.22;4990863;28;20482;-75
2023/12/04 02:37:21;;;;;;;0.00;0.00;;;;;;;6.92;56.13;101091.59;5008953;28;20437;-75
2023/12/04 02:39:48;;;;;;;0.10;0.10;;;;;;;7.85;54.27;101082.72;5010087;28;20032;-75
2023/12/04 02:42:13;;;;;;;0.03;0.03;;;;;;;8.14;53.26;101087.19;5009614;28;20026;-74
2023/12/04 02:44:39;;;;;;;0.40;0.40;;;;;;;7.00;55.78;101084.72;5009441;28;20122;-75
2023/12/04 02:47:05;;;;;;;0.03;0.03;;;;;;;7.53;55.03;101086.00;4993860;28;20023;-75
2023/12/04 02:49:30;;;;;;;0.30;0.30;;;;;;;7.26;55.78;101077.13;5009448;28;20539;-75
2023/12/04 02:51:57;;;;;;;0.10;0.10;;;;;;;7.67;54.95;101073.06;5006679;28;20041;-75
2023/12/04 02:54:23;;;;;;;0.00;0.00;;;;;;;7.78;54.26;101065.34;4993529;28;20506;-75
2023/12/04 02:56:48;;;;;;;0.57;0.57;;;;;;;7.24;55.22;101073.66;5001565;28;20028;-75
2023/12/04 02:59:13;;;;;;;0.00;0.00;;;;;;;7.11;56.44;101069.22;5013689;28;20113;-75
2023/12/04 03:01:39;;;;;;;0.00;0.00;;;;;;;7.14;55.65;101061.44;4996686;28;20026;-75
2023/12/04 03:04:04;;;;;;;0.87;0.87;;;;;;;7.08;56.34;101056.22;5011483;28;20023;-75
2023/12/04 03:06:30;;;;;;;0.30;0.30;;;;;;;7.03;56.18;101060.50;5012877;28;20129;-75
2023/12/04 03:08:55;;;;;;;0.07;0.07;;;;;;;7.93;54.31;101055.00;5013758;28;20465;-75
2023/12/04 03:11:20;;;;;;;0.00;0.00;;;;;;;8.05;53.64;101048.97;4997060;28;20079;-75
2023/12/04 03:13:46;;;;;;;0.57;0.57;;;;;;;7.69;54.07;101039.25;5013885;28;20029;-75
2023/12/04 03:16:18;;;;;;;0.00;0.00;;;;;;;7.43;55.19;101034.78;5013428;28;20109;-75
2023/12/04 03:18:44;;;;;;;0.17;0.17;;;;;;;6.95;55.69;101035.31;5013115;28;20424;-75
2023/12/04 03:21:09;;;;;;;1.60;1.03;;;;;;;7.54;54.12;101024.44;5012624;28;20025;-75
2023/12/04 03:23:34;;;;;;;0.27;0.27;;;;;;;7.72;54.76;101018.44;5012349;28;20025;-75
2023/12/04 03:26:00;;;;;;;10.03;1.60;;;;;;;7.35;55.24;101013.94;5012490;28;20473;-75
2023/12/04 03:28:25;;;;;;;0.10;0.10;;;;;;;7.43;54.96;101013.97;5013524;28;20390;-75
2023/12/04 03:30:51;;;;;;;0.17;0.17;;;;;;;6.82;56.26;101007.47;4996130;28;20030;-75
2023/12/04 03:33:16;;;;;;;6.60;1.13;;;;;;;7.21;55.76;101006.06;5004622;28;20113;-75
2023/12/04 03:35:41;;;;;;;0.00;0.00;;;;;;;7.51;54.57;100999.28;4993712;28;20486;-75
2023/12/04 03:38:07;;;;;;;0.13;0.13;;;;;;;7.16;55.11;100992.16;5006259;28;20081;-75
2023/12/04 03:40:32;;;;;;;0.57;0.30;;;;;;;7.08;55.42;101001.63;5012323;28;20033;-75
2023/12/04 03:42:57;;;;;;;0.47;0.47;;;;;;;7.04;55.33;101002.47;5002079;28;20478;-75
2023/12/04 03:45:23;;;;;;;0.77;0.77;;;;;;;7.13;54.40;100997.31;4993106;28;20030;-75
2023/12/04 03:47:48;;;;;;;0.10;0.10;;;;;;;7.17;55.46;100988.69;4995839;28;20034;-75
2023/12/04 03:50:14;;;;;;;0.10;0.10;;;;;;;7.18;55.15;100980.00;5007153;28;20489;-75
2023/12/04 03:52:39;;;;;;;1.50;0.83;;;;;;;6.94;55.76;100984.19;5005069;28;20386;-75
2023/12/04 03:55:05;;;;;;;0.10;0.10;;;;;;;6.85;55.92;100981.50;4992649;28;20022;-74
2023/12/04 03:57:30;;;;;;;0.00;0.00;;;;;;;6.69;56.09;100990.03;4999539;28;20018;-75
2023/12/04 03:59:56;;;;;;;0.10;0.10;;;;;;;7.05;54.51;100980.81;5011176;28;20026;-75
2023/12/04 04:02:21;;;;;;;0.00;0.00;;;;;;;7.11;54.51;100973.03;4998961;28;20131;-75
2023/12/04 04:04:46;;;;;;;0.00;0.00;;;;;;;6.75;56.25;100964.97;5012636;28;20033;-75
2023/12/04 04:07:13;;;;;;;0.30;0.30;;;;;;;7.29;54.68;100962.75;5008688;28;20089;-75
2023/12/04 04:09:39;;;;;;;0.20;0.20;;;;;;;7.47;53.99;100963.69;5006547;28;20030;-74
2023/12/04 04:12:04;;;;;;;0.00;0.00;;;;;;;7.47;54.13;100958.50;5011428;28;20379;-75
2023/12/04 04:14:30;;;;;;;1.23;1.23;;;;;;;7.13;54.95;100956.59;4992533;28;20029;-75
2023/12/04 04:16:55;;;;;;;0.10;0.10;;;;;;;7.06;54.72;100953.94;5003023;28;20033;-75
2023/12/04 04:19:20;;;;;;;0.00;0.00;;;;;;;7.01;54.82;100945.25;5011148;28;20169;-74
2023/12/04 04:21:46;;;;;;;0.10;0.10;;;;;;;7.52;53.64;100949.00;5011433;28;20103;-75
2023/12/04 04:24:11;;;;;;;0.00;0.00;;;;;;;7.12;54.42;100949.66;4995143;28;20035;-74
2023/12/04 04:26:36;;;;;;;0.00;0.00;;;;;;;6.93;55.24;100943.47;4992927;28;20023;-74
2023/12/04 04:29:02;;;;;;;0.00;0.00;;;;;;;6.67;55.27;100942.41;4998376;28;20030;-74
2023/12/04 04:31:27;;;;;;;0.23;0.23;;;;;;;7.32;54.04;100942.81;5002312;28;20061;-74
2023/12/04 04:33:53;;;;;;;0.00;0.00;;;;;;;7.30;53.41;100935.88;5011903;28;20393;-74
2023/12/04 04:36:18;;;;;;;1.40;1.23;;;;;;;7.41;53.61;100935.06;5011428;28;20117;-74
2023/12/04 04:38:43;;;;;;;0.00;0.00;;;;;;;7.27;53.80;100935.88;5011619;28;20033;-74
2023/12/04 04:41:18;;;;;;;0.10;0.10;;;;;;;7.42;53.90;100934.22;5013202;28;20026;-74
2023/12/04 04:43:43;;;;;;;0.10;0.10;;;;;;;6.84;54.59;100933.03;5000364;28;20039;-74
2023/12/04 04:46:09;;;;;;;0.20;0.20;;;;;;;7.03;54.63;100933.13;5001067;28;20025;-74
2023/12/04 04:48:34;;;;;;;0.10;0.10;;;;;;;7.00;53.81;100933.97;5011142;28;20097;-74
2023/12/04 04:51:00;;;;;;;0.00;0.00;;;;;;;7.19;53.96;100929.75;5010989;28;20042;-73
2023/12/04 04:53:25;;;;;;;0.30;0.30;;;;;;;7.04;53.93;100929.69;5005030;28;20489;-74
2023/12/04 04:55:51;;;;;;;0.40;0.40;;;;;;;7.45;52.69;100921.22;4992180;28;20397;-74
2023/12/04 04:58:17;;;;;;;0.00;0.00;;;;;;;7.60;52.87;100921.28;5019752;28;20062;-74
2023/12/04 05:00:43;;;;;;;0.10;0.10;;;;;;;6.95;54.26;100913.16;4998694;28;20030;-74
2023/12/04 05:03:08;;;;;;;0.00;0.00;;;;;;;7.41;52.87;100919.47;5004487;28;20043;-75
2023/12/04 05:05:34;;;;;;;0.00;0.00;;;;;;;7.38;52.46;100903.88;4990778;28;20088;-74
2023/12/04 05:08:02;;;;;;;7.23;6.60;;;;;;;7.20;53.51;100900.31;4994981;28;20028;-75
2023/12/04 05:10:27;;;;;;;0.03;0.03;;;;;;;6.92;53.45;100902.75;5011307;28;20466;-74
2023/12/04 05:12:53;;;;;;;0.00;0.00;;;;;;;6.92;53.83;100894.97;5007719;28;20053;-74
2023/12/04 05:15:18;;;;;;;0.00;0.00;;;;;;;6.78;53.90;100896.59;5009289;28;20331;-74
2023/12/04 05:17:43;;;;;;;0.00;0.00;;;;;;;7.26;52.51;100894.25;5008394;28;20030;-75
2023/12/04 05:20:09;;;;;;;0.00;0.00;;;;;;;7.07;52.96;100888.09;5010776;28;20025;-74
2023/12/04 05:22:35;;;;;;;0.07;0.07;;;;;;;6.93;52.81;100890.63;5010459;28;20061;-74
2023/12/04 05:25:01;;;;;;;0.00;0.00;;;;;;;7.30;52.13;100886.47;5008428;28;20068;-74
2023/12/04 05:27:26;;;;;;;0.10;0.10;;;;;;;7.53;52.05;100877.91;5009248;28;20507;-74
2023/12/04 05:29:52;;;;;;;0.00;0.00;;;;;;;7.07;53.01;100880.31;5009928;28;20199;-74
2023/12/04 05:32:17;;;;;;;0.10;0.10;;;;;;;7.43;51.81;100876.13;5009246;28;20089;-74
2023/12/04 05:34:42;;;;;;;0.10;0.10;;;;;;;7.38;52.39;100873.50;4995982;28;20532;-74
2023/12/04 05:37:08;;;;;;;1.67;1.57;;;;;;;7.30;52.23;100864.81;5001284;28;20026;-74
2023/12/04 05:39:33;;;;;;;0.00;0.00;;;;;;;8.20;50.79;100870.19;5005083;28;20050;-74
2023/12/04 05:42:00;;;;;;;0.10;0.10;;;;;;;7.83;51.73;100873.66;5010565;28;20024;-74
2023/12/04 05:44:25;;;;;;;0.10;0.10;;;;;;;7.39;52.42;100859.66;5009414;28;20508;-74
2023/12/04 05:46:50;;;;;;;0.10;0.10;;;;;;;7.47;52.73;100857.94;5009097;28;20025;-74
2023/12/04 05:49:16;;;;;;;0.10;0.10;;;;;;;7.93;51.57;100854.56;5008149;28;20026;-73
2023/12/04 05:51:42;;;;;;;0.10;0.10;;;;;;;7.66;51.83;100857.13;5010135;28;20493;-74
2023/12/04 05:54:08;;;;;;;0.00;0.00;;;;;;;7.52;52.58;100860.56;5008157;28;20028;-74
2023/12/04 05:56:34;;;;;;;0.17;0.17;;;;;;;8.07;51.23;100866.72;5009005;28;20064;-73
2023/12/04 05:59:03;;;;;;;0.00;0.00;;;;;;;7.78;51.86;100867.56;5001607;28;20034;-74
2023/12/04 06:01:28;;;;;;;0.10;0.10;;;;;;;7.52;52.18;100863.16;5006653;28;20053;-74
2023/12/04 06:03:53;;;;;;;0.45;0.45;;;;;;;7.26;53.51;100879.53;4964878;28;1141240;-74
2023/12/04 06:06:19;;;;;;;0.20;0.20;;;;;;;7.19;52.85;100872.56;4990272;28;20624;-74
2023/12/04 06:08:44;;;;;;;0.20;0.20;;;;;;;7.44;52.59;100868.31;4996957;28;20032;-74
2023/12/04 06:11:09;;;;;;;0.10;0.10;;;;;;;6.96;53.78;100856.84;5010070;28;20025;-74
2023/12/04 06:13:35;;;;;;;0.10;0.10;;;;;;;7.20;53.01;100857.81;5008011;28;20026;-74
2023/12/04 06:16:00;;;;;;;0.00;0.00;;;;;;;7.17;53.18;100853.50;5011144;28;20033;-74
2023/12/04 06:18:25;;;;;;;1.00;0.43;;;;;;;7.36;51.93;100858.75;5010730;28;20034;-74
2023/12/04 06:20:51;;;;;;;0.10;0.10;;;;;;;7.42;52.23;100848.41;5010772;28;20037;-73
2023/12/04 06:23:17;;;;;;;0.00;0.00;;;;;;;7.91;51.61;100843.31;5006547;28;20117;-73
2023/12/04 06:25:43;;;;;;;0.00;0.00;;;;;;;7.92;51.92;100838.94;5010177;28;20041;-74
2023/12/04 06:28:09;;;;;;;0.20;0.20;;;;;;;7.63;52.02;100830.22;5009206;28;20500;-74
2023/12/04 06:30:34;;;;;;;0.00;0.00;;;;;;;6.95;53.09;100837.81;5010144;28;20026;-73
2023/12/04 06:33:00;;;;;;;0.20;0.20;;;;;;;6.78;53.69;100834.22;4998486;28;20049;-74
2023/12/04 06:35:26;;;;;;;0.93;0.93;;;;;;;7.47;53.02;100820.66;5004134;28;20045;-74
2023/12/04 06:37:54;;;;;;;1.87;1.70;;;;;;;7.57;52.69;100822.41;5010809;28;20029;-74
2023/12/04 06:40:20;;;;;;;0.43;0.43;;;;;;;7.15;53.27;100818.81;4999961;28;20246;-74
2023/12/04 06:42:45;;;;;;;0.10;0.10;;;;;;;7.68;52.35;100817.25;5000926;28;20030;-74
2023/12/04 06:45:11;;;;;;;0.00;0.00;;;;;;;7.44;52.78;100812.84;4997070;28;20018;-74
2023/12/04 06:47:39;;;;;;;0.00;0.00;;;;;;;7.94;51.89;100809.47;4999320;28;20022;-74
2023/12/04 06:50:05;;;;;;;0.97;0.50;;;;;;;7.63;52.35;100812.00;5024936;28;20521;-74
2023/12/04 06:52:31;;;;;;;0.50;0.50;;;;;;;7.92;52.01;100808.56;5007193;28;20513;-74
2023/12/04 06:54:56;;;;;;;0.20;0.20;;;;;;;7.96;51.70;100805.09;5005287;28;20026;-74
2023/12/04 06:57:21;;;;;;;0.00;0.00;;;;;;;7.91;51.25;100811.19;5010099;28;20058;-74
2023/12/04 06:59:47;;;;;;;0.10;0.10;;;;;;;7.46;53.00;100817.19;5009906;28;20390;-74
2023/12/04 07:02:12;;;;;;;0.00;0.00;;;;;;;8.06;50.66;100815.53;5013318;28;20050;-74
2023/12/04 07:04:38;;;;;;;0.20;0.20;;;;;;;7.19;53.68;100810.16;4996673;28;20034;-74
2023/12/04 07:07:05;;;;;;;0.10;0.10;;;;;;;7.53;52.92;100809.38;5008845;28;20053;-74
2023/12/04 07:09:34;;;;;;;0.10;0.10;;;;;;;8.20;51.56;100807.72;5005199;28;20112;-74
2023/12/04 07:12:02;;;;;;;0.17;0.17;;;;;;;7.19;53.05;100810.16;5008942;28;20036;-74
2023/12/04 07:14:28;;;;;;;0.10;0.10;;;;;;;7.63;52.23;100799.00;5006740;28;20471;-74
2023/12/04 07:16:53;;;;;;;0.20;0.20;;;;;;;7.70;52.00;100796.44;4999643;28;20025;-74
2023/12/04 07:19:19;;;;;;;0.00;0.00;;;;;;;7.15;52.83;100791.97;5005523;28;20325;-74
2023/12/04 07:21:45;;;;;;;0.00;0.00;;;;;;;7.81;52.05;100789.50;5000801;28;20030;-74
2023/12/04 07:24:10;;;;;;;1.07;1.00;;;;;;;8.55;50.53;100786.00;5022136;28;20030;-74
2023/12/04 07:26:38;;;;;;;2.00;1.40;;;;;;;8.13;50.63;100775.59;5006280;28;20057;-74
2023/12/04 07:29:03;;;;;;;3.60;2.00;;;;;;;8.23;50.50;100782.53;5003431;28;20037;-73
2023/12/04 07:31:32;;;;;;;1.80;0.93;;;;;;;8.11;50.60;100787.75;5000389;28;20038;-73
2023/12/04 07:33:59;;;;;;;0.00;0.00;;;;;;;7.43;51.69;100772.97;5011961;28;20026;-73
2023/12/04 07:36:25;;;;;;;0.10;0.10;;;;;;;7.57;52.46;100775.59;5008656;28;20080;-74
2023/12/04 07:38:50;;;;;;;0.10;0.10;;;;;;;7.68;52.08;100767.81;5002490;28;20447;-74
2023/12/04 07:41:18;;;;;;;11.40;4.90;;;;;;;8.03;50.84;100771.28;5005477;28;20113;-74
2023/12/04 07:43:43;;;;;;;7.63;3.67;;;;;;;8.21;49.84;100767.78;5011207;28;20096;-74
2023/12/04 07:46:10;;;;;;;10.33;3.80;;;;;;;8.41;49.92;100772.97;5011190;28;20046;-74
2023/12/04 07:48:36;;;;;;;9.90;5.60;;;;;;;7.29;51.75;100769.47;5005933;28;20040;-73
2023/12/04 07:51:01;;;;;;;16.17;5.13;;;;;;;7.61;51.78;100777.34;5010352;28;20045;-72
2023/12/04 07:53:26;;;;;;;9.07;4.97;;;;;;;7.39;51.79;100770.34;5012287;28;20030;-73
2023/12/04 07:55:52;;;;;;;10.07;4.27;;;;;;;8.45;50.08;100766.91;5011766;28;20096;-73
2023/12/04 07:58:18;;;;;;;10.33;5.20;;;;;;;8.02;49.87;100766.94;5010121;28;20474;-73
2023/12/04 08:00:47;;;;;;;12.00;4.40;;;;;;;7.80;51.56;100759.13;5005643;28;20034;-73
2023/12/04 08:03:13;;;;;;;9.10;4.40;;;;;;;7.50;51.52;100757.38;4997428;28;20085;-72
2023/12/04 08:05:38;;;;;;;10.90;4.50;;;;;;;8.49;49.67;100758.22;5004576;28;20088;-73
2023/12/04 08:08:04;;;;;;;6.70;3.87;;;;;;;7.47;51.21;100782.50;5004398;28;20041;-73
2023/12/04 08:10:29;;;;;;;11.27;5.73;;;;;;;8.07;50.32;100780.81;5011059;28;20448;-74
2023/12/04 08:12:54;;;;;;;15.40;5.63;;;;;;;8.41;49.44;100783.41;5010728;28;20037;-73
2023/12/04 08:15:20;;;;;;;10.40;5.17;;;;;;;7.87;50.91;100780.81;5006894;28;20029;-73
2023/12/04 08:17:45;;;;;;;9.87;5.27;;;;;;;7.76;51.03;100773.88;5011876;28;20034;-73
2023/12/04 08:20:14;;;;;;;10.87;4.83;;;;;;;7.17;51.72;100785.91;5011476;28;20025;-74
2023/12/04 08:22:41;;;;;;;13.47;4.83;;;;;;;7.08;53.33;100770.28;4998432;28;20033;-73
2023/12/04 08:25:07;;;;;;;14.10;4.67;;;;;;;7.23;52.83;100765.13;5010905;28;20028;-75
2023/12/04 08:27:32;;;;;;;7.53;3.70;;;;;;;7.08;52.20;100770.28;5008762;28;20038;-73
2023/12/04 08:29:58;;;;;;;12.27;4.70;;;;;;;8.08;50.92;100759.13;4993427;28;20429;-72
2023/12/04 08:32:23;;;;;;;13.70;4.60;;;;;;;7.80;50.87;100757.41;5008425;28;20033;-73
2023/12/04 08:34:49;;;;;;;10.50;5.00;;;;;;;8.25;49.57;100752.16;5011049;28;20021;-73
2023/12/04 08:37:14;;;;;;;11.37;5.27;;;;;;;8.59;49.37;100748.66;5009727;28;20029;-72
2023/12/04 08:39:39;;;;;;;10.23;4.90;;;;;;;7.93;49.53;100753.06;5011770;28;20026;-73
2023/12/04 08:42:05;;;;;;;10.33;5.37;;;;;;;8.26;49.60;100740.88;5007964;28;20045;-73
2023/12/04 08:44:30;;;;;;;12.03;5.17;;;;;;;8.18;49.33;100747.81;5010596;28;20493;-73
2023/12/04 08:46:57;;;;;;;14.50;5.17;;;;;;;8.16;50.17;100739.16;4999842;28;20026;-73
2023/12/04 08:49:23;;;;;;;9.77;4.50;;;;;;;7.35;51.21;100727.00;5000016;28;20048;-73
2023/12/04 08:51:50;;;;;;;9.80;5.47;;;;;;;7.40;51.10;100726.13;5010716;28;20026;-73
2023/12/04 08:54:16;;;;;;;11.77;4.83;;;;;;;7.87;50.57;100721.84;5010549;28;20021;-73
2023/12/04 08:56:41;;;;;;;9.50;4.30;;;;;;;7.22;51.90;100721.78;5003734;28;20018;-73
2023/12/04 08:59:07;;;;;;;9.33;4.37;;;;;;;8.20;49.43;100717.47;5010358;28;20153;-73
2023/12/04 09:01:32;;;;;;;13.83;5.90;;;;;;;8.71;48.27;100711.22;5005471;28;20026;-73
2023/12/04 09:03:58;;;;;;;8.83;4.57;;;;;;;8.72;48.11;100705.16;5010078;28;20121;-73
2023/12/04 09:06:23;;;;;;;10.00;4.30;;;;;;;8.08;49.35;100715.72;4995718;28;20146;-73
2023/12/04 09:08:48;;;;;;;12.20;4.47;;;;;;;8.09;49.08;100716.59;5010971;28;20030;-73
2023/12/04 09:11:14;;;;;;;9.60;5.43;;;;;;;7.81;49.62;100716.63;5005117;28;20065;-73
2023/12/04 09:13:39;;;;;;;11.93;4.80;;;;;;;7.63;49.99;100707.94;4994332;28;20057;-73
2023/12/04 09:16:05;;;;;;;9.33;4.57;;;;;;;7.87;49.91;100716.63;5010948;28;20045;-73
2023/12/04 09:18:30;;;;;;;11.93;5.23;;;;;;;8.10;48.96;100715.72;5005639;28;20034;-73
2023/12/04 09:20:56;;;;;;;11.00;4.30;;;;;;;7.67;49.78;100718.38;5004612;28;20034;-73
2023/12/04 09:23:21;;;;;;;10.17;4.90;;;;;;;7.96;49.89;100711.41;5017433;28;20064;-73
2023/12/04 09:25:46;;;;;;;10.13;4.10;;;;;;;8.01;49.20;100713.13;5003745;28;20117;-73
2023/12/04 09:28:12;;;;;;;14.10;4.73;;;;;;;8.63;48.08;100708.69;5004308;28;20042;-72
2023/12/04 09:30:38;;;;;;;8.83;3.60;;;;;;;8.48;48.32;100715.66;5008925;28;20517;-73
2023/12/04 09:33:03;;;;;;;7.27;4.33;;;;;;;8.38;48.71;100723.47;5010082;28;20127;-73
2023/12/04 09:35:29;;;;;;;9.10;4.70;;;;;;;8.74;47.93;100719.06;5010126;28;20030;-73
2023/12/04 09:37:54;;;;;;;12.63;5.23;;;;;;;7.91;49.22;100723.56;4986208;28;20026;-73
2023/12/04 09:40:20;;;;;;;7.67;3.10;;;;;;;7.87;49.56;100721.84;5007313;28;20032;-73
2023/12/04 09:42:46;;;;;;;7.03;4.30;;;;;;;8.12;49.10;100720.06;5009142;28;20017;-73
2023/12/04 09:45:13;;;;;;;9.03;4.73;;;;;;;8.59;48.23;100707.81;4976829;28;20351;-73
2023/12/04 09:47:38;;;;;;;9.00;4.47;;;;;;;8.08;49.33;100709.66;5005780;28;20034;-73
2023/12/04 09:50:05;;;;;;;9.53;4.13;;;;;;;8.03;49.51;100707.06;5010166;28;20022;-74
2023/12/04 09:52:33;;;;;;;9.27;4.90;;;;;;;8.09;48.97;100701.84;4996671;28;20061;-73
2023/12/04 09:55:03;;;;;;;9.47;4.20;;;;;;;8.32;49.14;100699.19;5009870;28;20030;-73
2023/12/04 09:57:28;;;;;;;8.80;3.97;;;;;;;8.10;49.02;100697.50;5007312;28;20025;-73
2023/12/04 09:59:54;;;;;;;8.63;4.37;;;;;;;7.98;49.11;100699.25;5009013;28;20124;-74
2023/12/04 10:02:21;;;;;;;6.80;3.97;;;;;;;8.44;48.60;100684.41;5009527;28;20054;-73
2023/12/04 10:04:47;;;;;;;6.57;3.17;;;;;;;7.77;49.31;100688.88;4999461;28;20028;-74
2023/12/04 10:07:12;;;;;;;6.50;3.10;;;;;;;7.84;48.95;100676.72;4992666;28;20054;-73
2023/12/04 10:09:37;;;;;;;7.27;4.03;;;;;;;8.65;47.82;100681.75;5006074;28;20041;-73
2023/12/04 10:12:05;;;;;;;9.43;3.80;;;;;;;8.18;48.30;100664.50;5009047;28;20025;-74
2023/12/04 10:14:31;;;;;;;9.10;4.27;;;;;;;8.36;48.30;100653.16;4998965;28;20500;-73
2023/12/04 10:16:56;;;;;;;8.67;3.97;;;;;;;7.79;48.76;100655.91;5006034;28;20038;-72
2023/12/04 10:19:27;;;;;;;8.57;4.43;;;;;;;8.83;47.32;100648.63;4996119;28;20025;-73
2023/12/04 10:21:54;;;;;;;7.07;3.63;;;;;;;8.14;48.34;100648.00;5005454;28;20030;-72
2023/12/04 10:24:28;;;;;;;8.80;4.33;;;;;;;8.75;47.55;100639.97;5009103;28;20038;-72
2023/12/04 10:26:53;;;;;;;8.40;4.30;;;;;;;7.92;49.08;100642.00;5009015;28;20433;-72
2023/12/04 10:29:19;;;;;;;7.43;3.47;;;;;;;8.15;48.14;100638.47;5010692;28;20084;-72
2023/12/04 10:31:44;;;;;;;5.73;3.50;;;;;;;8.72;47.52;100629.59;5009211;28;20025;-72
2023/12/04 10:34:10;;;;;;;7.07;2.33;;;;;;;7.90;48.93;100628.13;5007248;28;20536;-73
2023/12/04 10:36:36;;;;;;;7.07;3.73;;;;;;;8.50;47.81;100621.88;5003661;28;20065;-73
2023/12/04 10:39:05;;;;;;;10.17;3.37;;;;;;;8.64;47.75;100612.25;4997914;28;20025;-73
2023/12/04 10:41:34;;;;;;;6.03;3.40;;;;;;;8.59;47.15;100606.19;5006046;28;20084;-72
2023/12/04 10:44:02;;;;;;;7.87;3.13;;;;;;;8.79;47.32;100600.00;5002979;28;20038;-72
2023/12/04 10:46:28;;;;;;;7.13;3.23;;;;;;;7.92;48.64;100607.31;5008542;28;20026;-72
2023/12/04 10:48:53;;;;;;;6.67;3.20;;;;;;;8.18;48.18;100602.00;5000691;28;20045;-72
2023/12/04 10:51:23;;;;;;;8.80;3.53;;;;;;;7.74;48.57;100590.00;5009605;28;20541;-72
2023/12/04 10:53:49;;;;;;;3.63;2.50;;;;;;;8.54;47.20;100587.13;5009568;28;20030;-72
2023/12/04 10:56:19;;;;;;;3.50;2.33;;;;;;;7.95;48.52;100584.75;5002069;28;20120;-73
2023/12/04 10:58:50;;;;;;;5.63;3.30;;;;;;;8.32;47.60;100579.41;5008390;28;20036;-72
2023/12/04 11:01:17;;;;;;;8.77;3.57;;;;;;;8.63;47.04;100579.25;5002582;28;20053;-72
2023/12/04 11:03:56;;;;;;;6.90;2.93;;;;;;;8.51;47.25;100574.13;5021491;28;20081;-72
2023/12/04 11:06:22;;;;;;;7.40;3.07;;;;;;;7.98;48.33;100579.53;4989199;28;20037;-73
2023/12/04 11:08:52;;;;;;;8.33;3.13;;;;;;;8.63;47.07;100574.03;5010987;28;20026;-72
2023/12/04 11:11:41;;;;;;;5.40;3.10;;;;;;;9.55;45.46;100555.94;4994113;28;20065;-72
2023/12/04 11:14:08;;;;;;;5.90;3.20;;;;;;;8.52;47.43;100568.03;4996027;28;20113;-72
2023/12/04 11:16:42;;;;;;;5.63;3.07;;;;;;;9.15;46.31;100566.72;4997930;28;20029;-72
2023/12/04 11:19:31;;;;;;;5.43;2.80;;;;;;;9.17;46.41;100564.97;4995343;28;20490;-73
2023/12/04 11:22:02;;;;;;;4.27;2.27;;;;;;;9.00;47.01;100567.72;4997594;28;20034;-73
2023/12/04 11:24:27;;;;;;;5.07;2.87;;;;;;;8.81;47.48;100564.38;5006645;28;20029;-73
2023/12/04 11:26:54;;;;;;;5.73;3.17;;;;;;;9.25;47.08;100565.75;5027902;28;20036;-73